KLMT/LMT METAR and TAF weather

Enter ICAO airport designator
Station Type Date Time Source
KLMT METAR 2019/10/23 07:53 UTC NOAA

KLMT 230753Z AUTO 31008KT 10SM CLR 07/02 A3036 RMK AO2 SLP267 T00670022 401891017


Station Type Date Time Source
KLMT Decoded METAR 2019/10/23 07:53 UTC NOAA

KLAMATH FALLS INTERNATIONAL AIRPORT, OR, United States (KLMT) 42-09N 121-43W 1246M
Oct 23, 2019 - 03:53 AM EDT / 2019.10.23 0753 UTC
Wind: from the NW (310 degrees) at 9 MPH (8 KT):0
Visibility: 10 mile(s):0
Sky conditions: clear
Temperature: 44.1 F (6.7 C)
Dew Point: 36.0 F (2.2 C)
Relative Humidity: 72%
Pressure (altimeter): 30.36 in. Hg (1028 hPa)
ob: KLMT 230753Z AUTO 31008KT 10SM CLR 07/02 A3036 RMK AO2 SLP267 T00670022 401891017
cycle: 8

Station Type Date Time Source
KLMT TAF 2019/10/23 06:40 UTC NOAA

TAF KLMT 230538Z 2306/2406 34003KT P6SM SKC
FM232200 35009KT P6SM SKC
FM240300 02003KT P6SM SKC

Example: see airport list